createdAt,value
2023-01-29T00:02:19.289Z,12.07
2023-01-29T00:04:46.263Z,10.18
2023-01-29T00:07:13.326Z,12.00
2023-01-29T00:09:43.300Z,11.35
2023-01-29T00:12:10.518Z,12.05
2023-01-29T00:14:37.566Z,10.85
2023-01-29T00:17:05.878Z,11.60
2023-01-29T00:19:32.969Z,11.73
2023-01-29T00:21:59.967Z,10.77
2023-01-29T00:24:27.061Z,11.57
2023-01-29T00:26:54.095Z,10.50
2023-01-29T00:29:22.003Z,9.98
2023-01-29T00:31:49.404Z,12.63
2023-01-29T00:34:16.570Z,10.57
2023-01-29T00:36:46.058Z,10.82
2023-01-29T00:39:13.308Z,11.68
2023-01-29T00:41:58.845Z,12.50
2023-01-29T00:44:44.856Z,11.15
2023-01-29T00:47:30.937Z,11.65
2023-01-29T00:49:58.423Z,12.85
2023-01-29T00:52:26.551Z,11.95
2023-01-29T00:54:56.512Z,12.32
2023-01-29T00:57:26.874Z,12.55
2023-01-29T00:59:55.051Z,11.25
2023-01-29T01:02:41.242Z,10.45
2023-01-29T01:05:14.136Z,11.27
2023-01-29T01:07:41.673Z,10.32
2023-01-29T01:10:22.140Z,11.02
2023-01-29T01:13:02.012Z,11.13
2023-01-29T01:15:39.512Z,12.05
2023-01-29T01:18:07.372Z,12.05
2023-01-29T01:20:36.116Z,11.15
2023-01-29T01:23:03.739Z,11.90
2023-01-29T01:25:31.088Z,11.88
2023-01-29T01:28:03.313Z,12.13
2023-01-29T01:30:30.653Z,10.20
2023-01-29T01:32:59.199Z,11.10
2023-01-29T01:35:26.340Z,10.18
2023-01-29T01:37:53.393Z,11.30
2023-01-29T01:40:25.907Z,10.85
2023-01-29T01:42:57.737Z,10.35
2023-01-29T01:45:36.616Z,10.70
2023-01-29T01:48:25.004Z,10.95
2023-01-29T01:51:03.699Z,10.15
2023-01-29T01:53:39.167Z,11.60
2023-01-29T01:56:10.290Z,12.30
2023-01-29T01:58:50.670Z,12.20
2023-01-29T02:01:19.071Z,10.50
2023-01-29T02:04:14.272Z,12.07
2023-01-29T02:07:00.436Z,9.80
2023-01-29T02:09:46.489Z,10.85
2023-01-29T02:12:16.210Z,11.73
2023-01-29T02:14:44.719Z,11.18
2023-01-29T02:17:15.913Z,11.45
2023-01-29T02:20:24.417Z,12.90
2023-01-29T02:23:38.793Z,11.57
2023-01-29T02:26:41.085Z,11.85
2023-01-29T02:29:39.728Z,12.07
2023-01-29T02:32:54.489Z,12.32
2023-01-29T02:36:35.469Z,11.48
2023-01-29T02:39:29.223Z,12.48
2023-01-29T02:42:31.401Z,12.07
2023-01-29T02:45:27.135Z,10.98
2023-01-29T02:50:48.329Z,11.77
2023-01-29T02:53:17.406Z,12.40
2023-01-29T02:56:04.135Z,11.88
2023-01-29T02:58:47.453Z,11.10
2023-01-29T03:01:30.318Z,10.73
2023-01-29T03:04:04.874Z,12.85
2023-01-29T03:06:53.244Z,12.57
2023-01-29T03:09:28.661Z,12.18
2023-01-29T03:12:19.893Z,11.77
2023-01-29T03:15:09.230Z,12.27
2023-01-29T03:18:22.720Z,11.43
2023-01-29T03:21:26.895Z,11.52
2023-01-29T03:24:14.149Z,10.60
2023-01-29T03:27:02.365Z,11.70
2023-01-29T03:29:55.305Z,11.38
2023-01-29T03:32:29.096Z,10.55
2023-01-29T03:35:04.431Z,13.10
2023-01-29T03:37:40.864Z,11.10
2023-01-29T03:40:10.268Z,10.73
2023-01-29T03:43:15.334Z,11.68
2023-01-29T03:46:03.618Z,11.88
2023-01-29T03:48:54.519Z,11.02
2023-01-29T03:51:33.652Z,10.55
2023-01-29T03:54:47.340Z,11.55
2023-01-29T03:57:54.295Z,10.82
2023-01-29T04:00:32.175Z,13.40
2023-01-29T04:03:25.098Z,11.43
2023-01-29T04:06:05.614Z,11.02
2023-01-29T04:08:44.651Z,11.02
2023-01-29T04:11:16.849Z,10.93
2023-01-29T04:13:45.611Z,10.45
2023-01-29T04:16:23.089Z,11.68
2023-01-29T04:18:59.667Z,12.18
2023-01-29T04:21:32.118Z,11.43
2023-01-29T04:23:59.780Z,10.48
2023-01-29T04:26:33.062Z,12.23
2023-01-29T04:29:22.075Z,11.45
2023-01-29T04:32:13.988Z,11.35
2023-01-29T04:35:24.238Z,11.40
2023-01-29T04:38:16.399Z,12.35
2023-01-29T04:41:05.326Z,11.40
2023-01-29T04:43:46.347Z,13.38
2023-01-29T04:46:41.155Z,13.27
2023-01-29T04:49:37.610Z,13.07
2023-01-29T04:52:48.246Z,10.50
2023-01-29T04:55:30.177Z,13.75
2023-01-29T04:58:15.075Z,13.55
2023-01-29T05:00:44.829Z,13.52
2023-01-29T05:03:15.317Z,13.57
2023-01-29T05:05:46.528Z,14.02
2023-01-29T05:08:19.427Z,12.95
2023-01-29T05:10:49.223Z,14.50
2023-01-29T05:13:18.539Z,14.38
2023-01-29T05:16:05.639Z,13.85
2023-01-29T05:18:32.995Z,12.55
2023-01-29T05:21:05.428Z,14.65
2023-01-29T05:23:32.455Z,14.35
2023-01-29T05:25:59.823Z,13.73
2023-01-29T05:28:26.870Z,14.35
2023-01-29T05:30:57.287Z,12.73
2023-01-29T05:33:29.704Z,13.43
2023-01-29T05:36:00.141Z,14.48
2023-01-29T05:38:28.089Z,10.80
2023-01-29T05:40:55.227Z,13.85
2023-01-29T05:43:24.821Z,13.30
2023-01-29T05:46:00.290Z,14.23
2023-01-29T05:48:29.185Z,13.65
2023-01-29T05:51:03.614Z,14.55
2023-01-29T05:53:31.836Z,14.35
2023-01-29T05:56:02.483Z,14.00
2023-01-29T05:58:32.785Z,13.10
2023-01-29T06:01:11.321Z,13.52
2023-01-29T06:03:38.538Z,12.52
2023-01-29T06:06:05.862Z,14.52
2023-01-29T06:08:33.401Z,14.00
2023-01-29T06:11:00.642Z,12.65
2023-01-29T06:13:27.930Z,14.00
2023-01-29T06:15:55.987Z,13.30
2023-01-29T06:18:23.067Z,12.85
2023-01-29T06:20:50.167Z,13.02
2023-01-29T06:23:17.630Z,13.30
2023-01-29T06:25:44.725Z,14.23
2023-01-29T06:28:11.954Z,14.60
2023-01-29T06:30:39.001Z,13.82
2023-01-29T06:33:06.075Z,15.70
2023-01-29T06:35:33.955Z,15.07
2023-01-29T06:38:00.989Z,15.02
2023-01-29T06:40:28.288Z,15.20
2023-01-29T06:42:55.609Z,14.63
2023-01-29T06:45:22.849Z,16.00
2023-01-29T06:47:54.899Z,16.27
2023-01-29T06:59:36.345Z,14.15
2023-01-29T07:14:22.724Z,16.08
2023-01-29T07:23:01.592Z,15.60
2023-01-29T07:25:33.222Z,13.13
2023-01-29T07:28:14.421Z,14.68
2023-01-29T07:30:42.236Z,16.38
2023-01-29T07:33:12.056Z,14.07
2023-01-29T07:35:44.037Z,15.30
2023-01-29T07:38:19.265Z,15.18
2023-01-29T07:40:46.949Z,15.95
2023-01-29T07:46:06.157Z,14.90
2023-01-29T08:44:24.139Z,14.05
2023-01-29T08:46:57.248Z,12.35
2023-01-29T08:52:50.035Z,13.68
2023-01-29T08:55:19.098Z,14.27
2023-01-29T08:57:52.613Z,13.77
2023-01-29T09:00:24.148Z,13.63
2023-01-29T09:02:54.010Z,12.60
2023-01-29T09:05:21.499Z,14.60
2023-01-29T09:07:53.367Z,12.38
2023-01-29T09:10:21.467Z,12.68
2023-01-29T09:12:49.846Z,14.77
2023-01-29T09:15:17.908Z,12.43
2023-01-29T09:17:45.976Z,12.93
2023-01-29T09:20:13.407Z,13.38
2023-01-29T09:22:40.678Z,12.27
2023-01-29T09:25:09.358Z,10.55
2023-01-29T09:27:36.615Z,13.43
2023-01-29T09:30:06.423Z,11.75
2023-01-29T09:32:52.577Z,12.15
2023-01-29T09:35:24.219Z,13.40
2023-01-29T09:37:54.398Z,11.45
2023-01-29T09:40:55.901Z,12.50
2023-01-29T09:43:49.773Z,12.68
2023-01-29T09:46:48.658Z,9.80
2023-01-29T09:49:25.358Z,12.82
2023-01-29T09:52:26.856Z,10.88
2023-01-29T09:55:36.540Z,13.60
2023-01-29T09:58:34.026Z,13.45
2023-01-29T10:01:17.382Z,12.27
2023-01-29T10:04:21.515Z,10.95
2023-01-29T10:07:42.653Z,11.88
2023-01-29T10:10:29.078Z,11.25
2023-01-29T10:13:28.489Z,10.88
2023-01-29T10:16:16.662Z,12.02
2023-01-29T10:19:10.788Z,11.38
2023-01-29T10:22:02.692Z,11.82
2023-01-29T10:24:39.756Z,11.63
2023-01-29T10:27:17.942Z,13.10
2023-01-29T10:29:47.791Z,11.45
2023-01-29T10:32:23.222Z,10.93
2023-01-29T10:34:56.105Z,10.25
2023-01-29T10:37:40.381Z,11.30
2023-01-29T10:40:21.766Z,12.20
2023-01-29T10:43:06.944Z,9.18
2023-01-29T10:46:31.002Z,12.02
2023-01-29T10:49:23.785Z,9.68
2023-01-29T10:52:35.790Z,10.50
2023-01-29T10:55:41.080Z,10.43
2023-01-29T10:58:39.224Z,10.70
2023-01-29T11:01:09.120Z,10.80
2023-01-29T11:03:36.920Z,10.13
2023-01-29T11:06:31.978Z,11.18
2023-01-29T11:09:15.119Z,9.88
2023-01-29T11:11:55.848Z,11.02
2023-01-29T11:14:48.334Z,10.30
2023-01-29T11:17:21.777Z,8.25
2023-01-29T11:19:57.286Z,10.85
2023-01-29T11:22:31.265Z,11.35
2023-01-29T11:25:20.711Z,10.98
2023-01-29T11:28:03.272Z,10.00
2023-01-29T11:30:47.707Z,7.80
2023-01-29T11:33:28.441Z,8.65
2023-01-29T11:35:59.090Z,12.18
2023-01-29T11:38:29.423Z,11.45
2023-01-29T11:41:18.861Z,10.25
2023-01-29T11:43:48.998Z,8.98
2023-01-29T11:46:19.472Z,11.52
2023-01-29T11:48:51.655Z,9.45
2023-01-29T11:51:27.673Z,11.80
2023-01-29T11:54:05.443Z,9.50
2023-01-29T11:56:55.681Z,12.25
2023-01-29T11:59:57.060Z,10.80
2023-01-29T12:02:32.464Z,11.25
2023-01-29T12:05:07.788Z,12.77
2023-01-29T12:07:43.636Z,12.45
2023-01-29T12:13:15.843Z,14.85
2023-01-29T12:15:43.456Z,12.65
2023-01-29T12:18:36.844Z,12.77
2023-01-29T12:21:12.805Z,14.05
2023-01-29T12:24:19.806Z,13.50
2023-01-29T12:26:55.672Z,12.27
2023-01-29T12:32:29.439Z,12.73
2023-01-29T12:35:26.365Z,15.73
2023-01-29T12:41:00.543Z,14.18
2023-01-29T12:58:09.824Z,12.97
2023-01-29T13:10:19.721Z,14.93
2023-01-29T13:13:39.814Z,14.32
2023-01-29T13:16:12.789Z,17.85
2023-01-29T13:22:56.159Z,17.50
2023-01-29T13:29:47.136Z,16.88
2023-01-29T13:32:30.426Z,18.70
2023-01-29T13:35:05.910Z,17.20
2023-01-29T13:37:37.962Z,19.13
2023-01-29T13:40:24.938Z,18.67
2023-01-29T13:42:54.541Z,19.70
2023-01-29T13:45:40.614Z,18.00
2023-01-29T13:48:37.289Z,18.17
2023-01-29T13:51:21.128Z,18.65
2023-01-29T13:57:02.322Z,18.55
2023-01-29T13:59:58.241Z,19.27
2023-01-29T14:02:33.827Z,19.23
2023-01-29T14:05:43.673Z,21.33
2023-01-29T14:11:43.215Z,19.60
2023-01-29T14:14:54.797Z,16.15
2023-01-29T14:21:21.346Z,18.17
2023-01-29T14:23:51.901Z,18.45
2023-01-29T14:26:28.976Z,14.73
2023-01-29T14:29:33.814Z,18.42
2023-01-29T14:32:30.178Z,17.25
2023-01-29T14:35:20.958Z,18.08
2023-01-29T14:37:55.176Z,19.58
2023-01-29T14:40:31.227Z,17.80
2023-01-29T14:43:09.397Z,17.38
2023-01-29T14:45:42.974Z,18.13
2023-01-29T14:48:54.337Z,16.20
2023-01-29T14:51:47.984Z,17.73
2023-01-29T14:57:41.144Z,16.48
2023-01-29T15:00:29.091Z,16.02
2023-01-29T15:03:01.967Z,17.42
2023-01-29T15:05:38.490Z,16.23
2023-01-29T15:08:41.530Z,18.05
2023-01-29T15:17:24.723Z,17.67
2023-01-29T15:20:00.151Z,14.85
2023-01-29T15:27:37.510Z,16.90
2023-01-29T15:33:53.454Z,14.25
2023-01-29T15:36:31.820Z,16.13
2023-01-29T15:39:19.136Z,16.95
2023-01-29T15:41:49.297Z,13.13
2023-01-29T15:44:19.153Z,18.60
2023-01-29T15:47:03.237Z,18.58
2023-01-29T15:50:13.653Z,18.73
2023-01-29T15:56:09.454Z,18.50
2023-01-29T15:58:38.867Z,14.00
2023-01-29T16:01:10.599Z,13.77
2023-01-29T16:03:39.649Z,17.75
2023-01-29T16:06:12.224Z,16.77
2023-01-29T16:08:40.944Z,16.98
2023-01-29T16:11:17.140Z,12.27
2023-01-29T16:14:22.062Z,18.40
2023-01-29T16:17:42.615Z,15.25
2023-01-29T16:29:35.980Z,17.77
2023-01-29T16:32:07.255Z,14.98
2023-01-29T16:34:44.407Z,17.38
2023-01-29T16:37:32.658Z,18.90
2023-01-29T16:40:33.674Z,13.48
2023-01-29T16:43:26.181Z,16.50
2023-01-29T16:46:34.938Z,15.88
2023-01-29T16:49:02.923Z,14.05
2023-01-29T16:51:41.074Z,18.02
2023-01-29T16:54:18.239Z,19.25
2023-01-29T16:56:47.984Z,14.50
2023-01-29T16:59:31.443Z,14.15
2023-01-29T17:01:59.540Z,18.05
2023-01-29T17:04:26.606Z,19.27
2023-01-29T17:07:00.981Z,16.48
2023-01-29T17:09:34.459Z,19.05
2023-01-29T17:12:07.315Z,16.60
2023-01-29T17:14:36.844Z,19.60
2023-01-29T17:17:19.813Z,13.20
2023-01-29T17:19:49.462Z,14.48
2023-01-29T17:22:17.124Z,16.55
2023-01-29T17:24:44.526Z,17.95
2023-01-29T17:27:23.274Z,14.32
2023-01-29T17:29:52.062Z,17.02
2023-01-29T17:32:20.108Z,13.43
2023-01-29T17:34:47.569Z,16.92
2023-01-29T17:37:16.500Z,18.08
2023-01-29T17:39:47.858Z,19.55
2023-01-29T17:42:15.435Z,18.83
2023-01-29T17:44:43.384Z,16.48
2023-01-29T17:47:15.310Z,17.02
2023-01-29T17:49:43.656Z,16.17
2023-01-29T17:52:13.160Z,15.95
2023-01-29T17:54:40.100Z,19.27
2023-01-29T17:57:10.052Z,17.25
2023-01-29T17:59:46.491Z,16.23
2023-01-29T18:02:29.026Z,19.05
2023-01-29T18:04:56.825Z,15.57
2023-01-29T18:07:23.785Z,17.85
2023-01-29T18:09:50.680Z,13.68
2023-01-29T18:12:17.615Z,17.55
2023-01-29T18:14:44.483Z,12.75
2023-01-29T18:17:11.392Z,14.23
2023-01-29T18:19:38.402Z,17.80
2023-01-29T18:22:05.362Z,14.60
2023-01-29T18:24:32.257Z,9.00
2023-01-29T18:26:59.206Z,17.83
2023-01-29T18:29:30.054Z,16.88
2023-01-29T18:31:57.164Z,16.90
2023-01-29T18:34:24.190Z,12.25
2023-01-29T18:36:51.263Z,17.48
2023-01-29T18:39:18.180Z,16.08
2023-01-29T18:41:45.051Z,10.50
2023-01-29T18:44:12.098Z,15.18
2023-01-29T18:46:39.053Z,14.23
2023-01-29T18:49:06.131Z,15.10
2023-01-29T18:51:33.327Z,16.27
2023-01-29T18:54:00.773Z,14.32
2023-01-29T18:56:27.687Z,15.77
2023-01-29T18:58:56.043Z,15.02
2023-01-29T19:01:23.351Z,11.00
2023-01-29T19:03:50.290Z,16.10
2023-01-29T19:06:17.175Z,15.77
2023-01-29T19:08:44.248Z,16.20
2023-01-29T19:11:12.460Z,16.75
2023-01-29T19:13:40.926Z,14.52
2023-01-29T19:16:14.251Z,15.77
2023-01-29T19:18:41.910Z,14.98
2023-01-29T19:21:12.439Z,11.98
2023-01-29T19:23:41.072Z,16.13
2023-01-29T19:26:08.829Z,15.32
2023-01-29T19:28:36.202Z,17.00
2023-01-29T19:31:04.386Z,16.25
2023-01-29T19:33:31.492Z,14.50
2023-01-29T19:35:59.789Z,15.38
2023-01-29T19:38:27.578Z,12.82
2023-01-29T19:40:59.653Z,15.55
2023-01-29T19:43:32.718Z,15.95
2023-01-29T19:46:02.165Z,16.45
2023-01-29T19:48:29.567Z,16.65
2023-01-29T19:51:04.720Z,14.02
2023-01-29T19:53:32.414Z,14.38
2023-01-29T19:56:03.889Z,16.10
2023-01-29T19:58:33.993Z,14.63
2023-01-29T20:01:12.560Z,13.63
2023-01-29T20:03:42.155Z,13.60
2023-01-29T20:09:07.385Z,14.23
2023-01-29T20:11:38.746Z,16.42
2023-01-29T20:14:06.292Z,10.07
2023-01-29T20:16:33.738Z,16.52
2023-01-29T20:19:14.474Z,16.08
2023-01-29T20:22:07.192Z,15.80
2023-01-29T20:24:39.081Z,16.50
2023-01-29T20:27:06.405Z,14.50
2023-01-29T20:29:43.742Z,15.30
2023-01-29T20:32:12.897Z,15.77
2023-01-29T20:34:40.254Z,17.60
2023-01-29T20:37:07.697Z,11.48
2023-01-29T20:39:34.697Z,14.13
2023-01-29T20:42:02.015Z,17.00
2023-01-29T20:44:29.041Z,16.23
2023-01-29T20:47:01.494Z,14.38
2023-01-29T20:49:29.105Z,17.83
2023-01-29T20:51:56.660Z,17.80
2023-01-29T20:54:23.645Z,15.45
2023-01-29T20:56:50.874Z,16.35
2023-01-29T20:59:18.423Z,19.08
2023-01-29T21:01:45.913Z,16.40
2023-01-29T21:04:16.257Z,19.52
2023-01-29T21:06:43.659Z,17.40
2023-01-29T21:09:12.372Z,14.85
2023-01-29T21:11:39.540Z,18.35
2023-01-29T21:14:08.595Z,18.33
2023-01-29T21:16:44.518Z,16.10
2023-01-29T21:19:15.884Z,18.13
2023-01-29T21:21:43.721Z,18.35
2023-01-29T21:24:20.324Z,19.02
2023-01-29T21:56:04.224Z,19.33
2023-01-29T21:58:33.516Z,18.95
2023-01-29T22:01:36.976Z,22.23
2023-01-29T22:03:51.596Z,21.70
2023-01-29T22:06:20.550Z,21.85
2023-01-29T22:08:50.586Z,21.13
2023-01-29T22:11:18.779Z,16.02
2023-01-29T22:13:47.503Z,22.63
2023-01-29T22:16:17.811Z,22.75
2023-01-29T22:18:45.484Z,21.00
2023-01-29T22:21:19.146Z,21.67
2023-01-29T22:23:50.556Z,23.92
2023-01-29T22:26:19.468Z,21.33
2023-01-29T22:28:46.890Z,21.20
2023-01-29T22:31:15.251Z,20.77
2023-01-29T22:33:51.266Z,18.42
2023-01-29T22:38:49.023Z,18.83
2023-01-29T22:41:25.683Z,20.27
2023-01-29T22:43:55.923Z,20.67
2023-01-29T22:46:31.451Z,23.42
2023-01-29T22:49:03.633Z,19.27
2023-01-29T22:51:35.842Z,21.60
2023-01-29T22:54:04.504Z,23.05
2023-01-29T22:56:34.114Z,23.00
2023-01-29T22:59:05.288Z,19.63
2023-01-29T23:01:46.231Z,17.73
2023-01-29T23:04:18.588Z,21.58
2023-01-29T23:06:47.521Z,19.23
2023-01-29T23:09:15.088Z,21.42
2023-01-29T23:11:45.920Z,24.48
2023-01-29T23:14:17.391Z,23.55
2023-01-29T23:16:46.614Z,24.63
2023-01-29T23:24:46.604Z,24.75
2023-01-29T23:27:19.500Z,23.35
2023-01-29T23:29:51.130Z,21.02
2023-01-29T23:32:26.747Z,23.40
2023-01-29T23:34:58.720Z,26.33
2023-01-29T23:37:32.532Z,24.33
2023-01-29T23:40:09.003Z,19.92
2023-01-29T23:42:43.811Z,17.57
2023-01-29T23:45:17.645Z,26.70
2023-01-29T23:47:52.360Z,25.42
2023-01-29T23:50:35.653Z,24.83
